Time;durP1;ratioP1;P1;durP2;ratioP2;P2;SDS_P1;SDS_P2;PMS_P1;PMS_P2;Temp;Humidity;BMP_temperature;BMP_pressure;BME280_temperature;BME280_humidity;BME280_pressure;Samples;Min_cycle;Max_cycle;Signal;HPM_P1;HPM_P2
2024/01/18 00:02:56;;;;;;;2.20;1.90;;;;;;;;;;6136681;29;20310;-69
2024/01/18 00:06:00;;;;;;;2.27;2.07;;;;;;;;;;6136542;29;20301;-69
2024/01/18 00:09:04;;;;;;;3.60;2.50;;;;;;;;;;6134582;29;20306;-70
2024/01/18 00:12:08;;;;;;;2.30;2.20;;;;;;;;;;6151520;28;20558;-69
2024/01/18 00:15:13;;;;;;;4.67;2.23;;;;;;;;;;6159483;28;20303;-69
2024/01/18 00:18:18;;;;;;;4.40;2.30;;;;;;;;;;6161046;28;20294;-69
2024/01/18 00:21:22;;;;;;;4.87;2.20;;;;;;;;;;6150375;28;20317;-68
2024/01/18 00:24:26;;;;;;;2.43;2.40;;;;;;;;;;6160022;28;20482;-68
2024/01/18 00:27:30;;;;;;;2.30;1.73;;;;;;;;;;6160685;28;20488;-69
2024/01/18 00:30:34;;;;;;;2.37;2.00;;;;;;;;;;6160193;28;20294;-69
2024/01/18 00:33:40;;;;;;;6.60;2.33;;;;;;;;;;6141449;29;20299;-69
2024/01/18 00:36:46;;;;;;;6.93;2.10;;;;;;;;;;6136973;29;20287;-69
2024/01/18 00:39:50;;;;;;;2.20;2.00;;;;;;;;;;6135173;29;20299;-68
2024/01/18 00:42:54;;;;;;;3.83;2.30;;;;;;;;;;6136809;29;20437;-68
2024/01/18 00:46:03;;;;;;;3.10;2.13;;;;;;;;;;6135960;29;20295;-68
2024/01/18 00:49:08;;;;;;;4.00;2.10;;;;;;;;;;6135767;29;20299;-68
2024/01/18 00:52:12;;;;;;;3.07;1.80;;;;;;;;;;6136273;29;20428;-68
2024/01/18 00:55:16;;;;;;;4.03;2.10;;;;;;;;;;6135644;29;20303;-68
2024/01/18 00:58:21;;;;;;;2.10;2.00;;;;;;;;;;6136646;29;20301;-68
2024/01/18 01:01:25;;;;;;;3.93;1.90;;;;;;;;;;6134276;29;20299;-68
2024/01/18 01:04:30;;;;;;;3.10;2.40;;;;;;;;;;6135640;29;20299;-68
2024/01/18 01:07:34;;;;;;;4.63;2.20;;;;;;;;;;6136127;29;20303;-68
2024/01/18 01:10:38;;;;;;;5.13;2.03;;;;;;;;;;6137171;29;20302;-68
2024/01/18 01:13:43;;;;;;;4.47;1.70;;;;;;;;;;6142256;28;20463;-69
2024/01/18 01:16:47;;;;;;;2.20;2.00;;;;;;;;;;6163405;28;20297;-68
2024/01/18 01:19:52;;;;;;;2.90;1.90;;;;;;;;;;6161865;28;20290;-68
2024/01/18 01:22:56;;;;;;;2.20;2.03;;;;;;;;;;6164559;28;20294;-67
2024/01/18 01:26:01;;;;;;;2.20;1.90;;;;;;;;;;6164079;28;20306;-68
2024/01/18 01:29:05;;;;;;;2.13;1.87;;;;;;;;;;6162054;28;20298;-69
2024/01/18 01:32:09;;;;;;;2.53;1.90;;;;;;;;;;6157719;28;20304;-69
2024/01/18 01:35:14;;;;;;;5.67;1.73;;;;;;;;;;6123016;29;20300;-69
2024/01/18 01:38:18;;;;;;;2.03;1.93;;;;;;;;;;6140283;29;20318;-69
2024/01/18 01:41:22;;;;;;;3.20;1.70;;;;;;;;;;6139224;29;20297;-70
2024/01/18 01:44:26;;;;;;;2.10;1.90;;;;;;;;;;6135389;29;20459;-69
2024/01/18 01:47:30;;;;;;;5.10;1.87;;;;;;;;;;6139960;29;20387;-69
2024/01/18 01:50:35;;;;;;;2.07;1.87;;;;;;;;;;6138565;29;20302;-68
2024/01/18 01:53:39;;;;;;;2.20;1.80;;;;;;;;;;6139613;29;20300;-69
2024/01/18 01:56:45;;;;;;;3.93;2.00;;;;;;;;;;6140502;29;20312;-69
2024/01/18 01:59:49;;;;;;;2.80;1.53;;;;;;;;;;6140243;29;20300;-68
2024/01/18 02:02:53;;;;;;;4.67;1.53;;;;;;;;;;6132585;29;20307;-69
2024/01/18 02:05:58;;;;;;;5.33;2.00;;;;;;;;;;6137595;29;20595;-69
2024/01/18 02:09:03;;;;;;;1.87;1.60;;;;;;;;;;6139412;29;20607;-68
2024/01/18 02:12:08;;;;;;;1.67;1.57;;;;;;;;;;6150848;28;20294;-69
2024/01/18 02:15:12;;;;;;;4.00;1.80;;;;;;;;;;6160141;28;20320;-69
2024/01/18 02:18:17;;;;;;;2.43;1.63;;;;;;;;;;6155471;28;20304;-69
2024/01/18 02:21:25;;;;;;;1.77;1.67;;;;;;;;;;6163150;28;20432;-70
2024/01/18 02:24:33;;;;;;;1.80;1.70;;;;;;;;;;6146821;28;20301;-69
2024/01/18 02:27:40;;;;;;;1.43;1.43;;;;;;;;;;6163853;28;20236;-69
2024/01/18 02:30:44;;;;;;;1.60;1.50;;;;;;;;;;6159600;28;20374;-69
2024/01/18 02:33:48;;;;;;;3.67;1.90;;;;;;;;;;6163220;28;20299;-69
2024/01/18 02:36:52;;;;;;;1.60;1.50;;;;;;;;;;6162544;28;20296;-69
2024/01/18 02:39:56;;;;;;;2.40;1.60;;;;;;;;;;6160879;28;20286;-69
2024/01/18 02:43:01;;;;;;;1.90;1.70;;;;;;;;;;6163442;28;20298;-70
2024/01/18 02:46:05;;;;;;;1.80;1.50;;;;;;;;;;6163436;28;20296;-69
2024/01/18 02:49:09;;;;;;;1.63;1.63;;;;;;;;;;6163375;28;20303;-68
2024/01/18 02:52:13;;;;;;;1.73;1.60;;;;;;;;;;6163250;28;20327;-67
2024/01/18 02:55:18;;;;;;;3.70;1.40;;;;;;;;;;6162656;28;20307;-67
2024/01/18 02:58:23;;;;;;;4.90;1.40;;;;;;;;;;6163013;28;20308;-67
2024/01/18 03:01:27;;;;;;;1.90;1.40;;;;;;;;;;6152804;28;20305;-66
2024/01/18 03:04:32;;;;;;;2.00;1.40;;;;;;;;;;6152538;28;20297;-67
2024/01/18 03:07:36;;;;;;;5.37;1.27;;;;;;;;;;6162350;28;20305;-67
2024/01/18 03:10:40;;;;;;;1.57;1.47;;;;;;;;;;6161714;28;20298;-68
2024/01/18 03:13:46;;;;;;;1.03;1.03;;;;;;;;;;6161960;28;20295;-69
2024/01/18 03:16:49;;;;;;;1.23;1.23;;;;;;;;;;6162299;28;20299;-69
2024/01/18 03:19:53;;;;;;;1.20;1.20;;;;;;;;;;6162027;28;20656;-69
2024/01/18 03:22:58;;;;;;;1.83;1.20;;;;;;;;;;6162086;28;20622;-69
2024/01/18 03:26:02;;;;;;;1.00;1.00;;;;;;;;;;6161310;28;20325;-69
2024/01/18 03:29:09;;;;;;;1.20;1.20;;;;;;;;;;6144395;28;20432;-69
2024/01/18 03:32:13;;;;;;;1.70;1.27;;;;;;;;;;6155024;28;20266;-69
2024/01/18 03:35:17;;;;;;;1.20;1.10;;;;;;;;;;6137751;29;20316;-69
2024/01/18 03:38:22;;;;;;;0.90;0.90;;;;;;;;;;6134713;29;20301;-70
2024/01/18 03:41:26;;;;;;;1.03;1.03;;;;;;;;;;6137565;29;20494;-69
2024/01/18 03:44:31;;;;;;;1.20;1.20;;;;;;;;;;6137334;29;20291;-69
2024/01/18 03:47:35;;;;;;;1.00;1.00;;;;;;;;;;6137479;29;20302;-69
2024/01/18 03:50:39;;;;;;;1.00;1.00;;;;;;;;;;6137138;29;20587;-70
2024/01/18 03:53:44;;;;;;;1.43;1.20;;;;;;;;;;6119826;29;20287;-69
2024/01/18 03:56:48;;;;;;;1.00;1.00;;;;;;;;;;6127542;29;20295;-69
2024/01/18 03:59:55;;;;;;;1.10;1.10;;;;;;;;;;6137338;29;20315;-69
2024/01/18 04:02:59;;;;;;;1.30;1.20;;;;;;;;;;6121888;29;20579;-69
2024/01/18 04:06:03;;;;;;;1.30;1.30;;;;;;;;;;6136622;29;20455;-69
2024/01/18 04:09:08;;;;;;;1.10;1.10;;;;;;;;;;6118898;29;20309;-69
2024/01/18 04:12:12;;;;;;;0.97;0.97;;;;;;;;;;6113920;28;20600;-69
2024/01/18 04:15:18;;;;;;;1.53;1.10;;;;;;;;;;6160732;28;20297;-69
2024/01/18 04:18:22;;;;;;;1.20;1.20;;;;;;;;;;6158737;28;20298;-69
2024/01/18 04:21:27;;;;;;;1.00;1.00;;;;;;;;;;6137206;29;20296;-69
2024/01/18 04:24:31;;;;;;;1.33;1.27;;;;;;;;;;6146238;28;20314;-69
2024/01/18 04:27:35;;;;;;;1.40;1.40;;;;;;;;;;6160341;28;20309;-70
2024/01/18 04:30:40;;;;;;;0.90;0.90;;;;;;;;;;6161129;28;20296;-69
2024/01/18 04:33:45;;;;;;;0.90;0.90;;;;;;;;;;6153925;28;20295;-69
2024/01/18 04:36:49;;;;;;;2.17;1.20;;;;;;;;;;6159466;28;20598;-69
2024/01/18 04:39:53;;;;;;;1.10;1.10;;;;;;;;;;6160234;28;20341;-68
2024/01/18 04:42:57;;;;;;;1.20;1.20;;;;;;;;;;6160156;28;20294;-68
2024/01/18 04:46:04;;;;;;;1.00;1.00;;;;;;;;;;6160994;28;20305;-68
2024/01/18 04:49:08;;;;;;;1.10;1.10;;;;;;;;;;6158189;28;20303;-68
2024/01/18 04:52:12;;;;;;;1.17;1.17;;;;;;;;;;6160619;28;20296;-68
2024/01/18 04:55:16;;;;;;;1.23;1.20;;;;;;;;;;6160494;28;20302;-68
2024/01/18 04:58:20;;;;;;;1.20;1.20;;;;;;;;;;6160491;28;20297;-68
2024/01/18 05:01:25;;;;;;;1.20;1.20;;;;;;;;;;6149373;28;20599;-68
2024/01/18 05:04:30;;;;;;;1.17;1.17;;;;;;;;;;6159882;28;20299;-68
2024/01/18 05:07:34;;;;;;;1.30;1.30;;;;;;;;;;6159387;28;20294;-69
2024/01/18 05:10:38;;;;;;;1.20;1.20;;;;;;;;;;6159336;28;20293;-68
2024/01/18 05:13:42;;;;;;;1.20;1.20;;;;;;;;;;6160029;28;20302;-69
2024/01/18 05:16:51;;;;;;;2.40;1.27;;;;;;;;;;6159865;28;20285;-69
2024/01/18 05:20:12;;;;;;;1.10;1.10;;;;;;;;;;6158957;28;20298;-69
2024/01/18 05:23:16;;;;;;;1.30;1.30;;;;;;;;;;6155867;28;20301;-68
2024/01/18 05:26:20;;;;;;;1.17;1.10;;;;;;;;;;6160476;28;20302;-68
2024/01/18 05:29:25;;;;;;;1.17;1.17;;;;;;;;;;6159622;28;20313;-71
2024/01/18 05:32:30;;;;;;;1.00;1.00;;;;;;;;;;6159052;28;20294;-69
2024/01/18 05:35:34;;;;;;;1.17;1.17;;;;;;;;;;6160052;28;20302;-68
2024/01/18 05:38:38;;;;;;;1.30;1.30;;;;;;;;;;6159324;28;20294;-68
2024/01/18 05:41:45;;;;;;;1.37;1.37;;;;;;;;;;6158136;28;20296;-69
2024/01/18 05:44:49;;;;;;;1.23;1.23;;;;;;;;;;6159705;28;20294;-70
2024/01/18 05:47:54;;;;;;;1.20;1.20;;;;;;;;;;6159238;28;20302;-69
2024/01/18 05:50:58;;;;;;;1.30;1.30;;;;;;;;;;6159975;28;20333;-69
2024/01/18 05:54:02;;;;;;;1.20;1.20;;;;;;;;;;6157641;28;20306;-69
2024/01/18 05:57:06;;;;;;;1.27;1.27;;;;;;;;;;6159967;28;20302;-69
2024/01/18 06:00:12;;;;;;;1.20;1.20;;;;;;;;;;6159592;28;20306;-69
2024/01/18 06:03:18;;;;;;;1.20;1.20;;;;;;;;;;6163002;28;20292;-69
2024/01/18 06:06:22;;;;;;;1.50;1.50;;;;;;;;;;6164410;28;20294;-69
2024/01/18 06:09:26;;;;;;;1.30;1.30;;;;;;;;;;6160421;28;20305;-69
2024/01/18 06:12:32;;;;;;;1.40;1.10;;;;;;;;;;6163601;28;20558;-70
2024/01/18 06:15:36;;;;;;;1.23;1.23;;;;;;;;;;6164418;28;20298;-69
2024/01/18 06:18:42;;;;;;;1.20;1.20;;;;;;;;;;6163363;28;20297;-69
2024/01/18 06:21:46;;;;;;;1.13;1.13;;;;;;;;;;6162354;28;20277;-70
2024/01/18 06:24:50;;;;;;;1.20;1.20;;;;;;;;;;6162851;28;20429;-69
2024/01/18 06:27:54;;;;;;;1.10;1.10;;;;;;;;;;6159338;28;20299;-69
2024/01/18 06:30:58;;;;;;;1.80;1.30;;;;;;;;;;6162782;28;20297;-68
2024/01/18 06:34:04;;;;;;;1.20;1.20;;;;;;;;;;6141034;29;20297;-68
2024/01/18 06:37:09;;;;;;;1.20;1.20;;;;;;;;;;6140175;29;20330;-69
2024/01/18 06:40:13;;;;;;;1.13;1.13;;;;;;;;;;6138381;29;20302;-69
2024/01/18 06:43:17;;;;;;;1.27;1.20;;;;;;;;;;6139400;29;20469;-69
2024/01/18 06:46:22;;;;;;;1.17;1.17;;;;;;;;;;6122107;29;20302;-69
2024/01/18 06:49:27;;;;;;;1.20;1.20;;;;;;;;;;6138477;29;20313;-70
2024/01/18 06:52:31;;;;;;;1.10;1.10;;;;;;;;;;6138376;29;20306;-68
2024/01/18 06:55:35;;;;;;;1.40;1.40;;;;;;;;;;6134651;29;20308;-70
2024/01/18 06:58:39;;;;;;;1.20;1.20;;;;;;;;;;6138240;29;20582;-68
2024/01/18 07:01:43;;;;;;;1.23;1.23;;;;;;;;;;6139226;29;20295;-69
2024/01/18 07:04:48;;;;;;;1.33;1.33;;;;;;;;;;6138363;29;20302;-69
2024/01/18 07:07:53;;;;;;;1.40;1.40;;;;;;;;;;6138083;29;20298;-71
2024/01/18 07:10:57;;;;;;;1.30;1.30;;;;;;;;;;6151188;28;20580;-69
2024/01/18 07:14:01;;;;;;;1.40;1.40;;;;;;;;;;6162499;28;20301;-69
2024/01/18 07:17:05;;;;;;;1.30;1.30;;;;;;;;;;6162880;28;20300;-70
2024/01/18 07:20:11;;;;;;;1.40;1.30;;;;;;;;;;6162473;28;20324;-70
2024/01/18 07:23:15;;;;;;;1.40;1.40;;;;;;;;;;6162120;28;20491;-70
2024/01/18 07:26:20;;;;;;;1.57;1.50;;;;;;;;;;6162806;28;20582;-70
2024/01/18 07:29:24;;;;;;;1.20;1.20;;;;;;;;;;6161673;28;20305;-69
2024/01/18 07:32:28;;;;;;;1.43;1.43;;;;;;;;;;6161134;28;20302;-69
2024/01/18 07:35:33;;;;;;;1.23;1.23;;;;;;;;;;6161043;28;20300;-68
2024/01/18 07:38:37;;;;;;;1.20;1.20;;;;;;;;;;6161689;28;20300;-70
2024/01/18 07:41:41;;;;;;;1.23;1.23;;;;;;;;;;6176247;28;20546;-69
2024/01/18 07:44:46;;;;;;;1.20;1.20;;;;;;;;;;6161607;28;20302;-70
2024/01/18 07:47:49;;;;;;;1.30;1.30;;;;;;;;;;6157382;28;20431;-69
2024/01/18 07:50:55;;;;;;;1.43;1.43;;;;;;;;;;6161231;28;20303;-69
2024/01/18 07:53:59;;;;;;;1.40;1.40;;;;;;;;;;6159571;28;20287;-69
2024/01/18 07:57:03;;;;;;;1.40;1.40;;;;;;;;;;6161099;28;20301;-69
2024/01/18 08:00:08;;;;;;;1.47;1.47;;;;;;;;;;6161019;28;20312;-69
2024/01/18 08:03:12;;;;;;;1.33;1.33;;;;;;;;;;6160820;28;20304;-69
2024/01/18 08:06:18;;;;;;;1.40;1.33;;;;;;;;;;6160934;28;20304;-70
2024/01/18 08:09:22;;;;;;;1.40;1.40;;;;;;;;;;6174702;28;20304;-70
2024/01/18 08:12:26;;;;;;;1.40;1.30;;;;;;;;;;6161426;28;20438;-69
2024/01/18 08:15:31;;;;;;;1.37;1.37;;;;;;;;;;6161075;28;20294;-68
2024/01/18 08:18:36;;;;;;;1.63;1.63;;;;;;;;;;6159023;28;20291;-69
2024/01/18 08:21:44;;;;;;;1.40;1.30;;;;;;;;;;6161534;28;20481;-69
2024/01/18 08:24:48;;;;;;;1.60;1.60;;;;;;;;;;6159557;28;20344;-71
2024/01/18 08:27:56;;;;;;;1.30;1.30;;;;;;;;;;6160461;28;20573;-70
2024/01/18 08:31:00;;;;;;;1.30;1.30;;;;;;;;;;6160430;28;20327;-70
2024/01/18 08:34:04;;;;;;;1.47;1.47;;;;;;;;;;6135851;29;20320;-70
2024/01/18 08:37:10;;;;;;;1.37;1.37;;;;;;;;;;6137122;29;20297;-70
2024/01/18 08:40:14;;;;;;;1.30;1.30;;;;;;;;;;6136028;29;20308;-70
2024/01/18 08:43:22;;;;;;;1.33;1.33;;;;;;;;;;6136102;29;20296;-68
2024/01/18 08:46:26;;;;;;;1.33;1.33;;;;;;;;;;6135802;29;20292;-68
2024/01/18 08:49:30;;;;;;;1.40;1.40;;;;;;;;;;6136262;29;20301;-69
2024/01/18 08:52:35;;;;;;;1.33;1.33;;;;;;;;;;6125768;29;20299;-69
2024/01/18 08:55:41;;;;;;;1.40;1.40;;;;;;;;;;6136624;29;20308;-69
2024/01/18 08:58:45;;;;;;;1.40;1.40;;;;;;;;;;6135804;29;20492;-69
2024/01/18 09:01:49;;;;;;;1.20;1.20;;;;;;;;;;6136792;29;20296;-69
2024/01/18 09:04:53;;;;;;;1.30;1.20;;;;;;;;;;6136470;29;20584;-68
2024/01/18 09:08:00;;;;;;;1.20;1.20;;;;;;;;;;6118947;29;20311;-68
2024/01/18 09:11:09;;;;;;;1.20;1.20;;;;;;;;;;6150517;28;20597;-68
2024/01/18 09:14:13;;;;;;;1.27;1.27;;;;;;;;;;6158979;28;20306;-68
2024/01/18 09:17:17;;;;;;;1.37;1.30;;;;;;;;;;6159311;28;20472;-69
2024/01/18 09:20:21;;;;;;;1.20;1.20;;;;;;;;;;6159601;28;20578;-68
2024/01/18 09:23:27;;;;;;;1.40;1.40;;;;;;;;;;6159170;28;20583;-69
2024/01/18 09:26:31;;;;;;;1.40;1.40;;;;;;;;;;6160594;28;20300;-69
2024/01/18 09:29:36;;;;;;;1.20;1.20;;;;;;;;;;6159920;28;20326;-69
2024/01/18 09:32:40;;;;;;;1.30;1.20;;;;;;;;;;6148796;28;20490;-69
2024/01/18 09:35:44;;;;;;;1.80;1.43;;;;;;;;;;6136109;29;20292;-71
2024/01/18 09:38:49;;;;;;;1.40;1.40;;;;;;;;;;6140263;29;20296;-70
2024/01/18 09:41:54;;;;;;;1.50;1.50;;;;;;;;;;6138991;29;20339;-70
2024/01/18 09:45:01;;;;;;;1.30;1.30;;;;;;;;;;6140186;29;20300;-69
2024/01/18 09:48:07;;;;;;;1.30;1.30;;;;;;;;;;6139627;29;20297;-70
2024/01/18 09:51:11;;;;;;;1.20;1.20;;;;;;;;;;6130853;29;20565;-69
2024/01/18 09:54:17;;;;;;;1.30;1.20;;;;;;;;;;6104516;29;20342;-68
2024/01/18 09:57:29;;;;;;;1.27;1.27;;;;;;;;;;6116330;29;20330;-69
2024/01/18 10:00:34;;;;;;;1.30;1.30;;;;;;;;;;6116644;29;20306;-69
2024/01/18 10:03:38;;;;;;;1.30;1.20;;;;;;;;;;6116082;29;20300;-68
2024/01/18 10:06:43;;;;;;;1.20;1.20;;;;;;;;;;6117578;29;20299;-69
2024/01/18 10:09:48;;;;;;;1.27;1.27;;;;;;;;;;6122898;29;20294;-70
2024/01/18 10:12:52;;;;;;;1.50;1.40;;;;;;;;;;6153363;28;20598;-69
2024/01/18 10:15:56;;;;;;;1.40;1.40;;;;;;;;;;6159836;28;20301;-70
2024/01/18 10:19:01;;;;;;;1.20;1.20;;;;;;;;;;6162652;28;20294;-70
2024/01/18 10:22:06;;;;;;;1.13;1.13;;;;;;;;;;6164080;28;20306;-70
2024/01/18 10:25:15;;;;;;;1.43;1.30;;;;;;;;;;6162684;28;20302;-69
2024/01/18 10:28:19;;;;;;;2.93;1.20;;;;;;;;;;6163084;28;20300;-68
2024/01/18 10:31:23;;;;;;;1.27;1.23;;;;;;;;;;6163105;28;20298;-68
2024/01/18 10:34:27;;;;;;;2.10;1.40;;;;;;;;;;6138658;29;20457;-67
2024/01/18 10:37:31;;;;;;;1.40;1.40;;;;;;;;;;6138815;29;20295;-71
2024/01/18 10:40:37;;;;;;;1.53;1.40;;;;;;;;;;6112120;29;20299;-69
2024/01/18 10:43:41;;;;;;;1.33;1.33;;;;;;;;;;6138053;29;20549;-68
2024/01/18 10:46:46;;;;;;;1.30;1.30;;;;;;;;;;6138831;29;20298;-68
2024/01/18 10:49:51;;;;;;;1.20;1.20;;;;;;;;;;6138444;29;20550;-70
2024/01/18 10:52:57;;;;;;;1.30;1.30;;;;;;;;;;6138051;29;20304;-69
2024/01/18 10:56:02;;;;;;;1.20;1.20;;;;;;;;;;6139336;29;20616;-69
2024/01/18 10:59:07;;;;;;;1.50;1.40;;;;;;;;;;6138858;29;20299;-70
2024/01/18 11:02:12;;;;;;;1.13;1.13;;;;;;;;;;6139235;29;20477;-69
2024/01/18 11:05:17;;;;;;;1.30;1.23;;;;;;;;;;6138748;29;20314;-69
2024/01/18 11:08:22;;;;;;;1.40;1.30;;;;;;;;;;6120388;29;20298;-69
2024/01/18 11:11:27;;;;;;;1.20;1.20;;;;;;;;;;6147088;28;20302;-69
2024/01/18 11:14:32;;;;;;;1.50;1.20;;;;;;;;;;6161987;28;20574;-68
2024/01/18 11:17:36;;;;;;;2.10;1.53;;;;;;;;;;6161866;28;20306;-69
2024/01/18 11:21:04;;;;;;;1.30;1.30;;;;;;;;;;6160584;28;20299;-69
2024/01/18 11:24:10;;;;;;;1.30;1.20;;;;;;;;;;6161389;28;20310;-68
2024/01/18 11:27:21;;;;;;;1.10;1.10;;;;;;;;;;6161939;28;20581;-69
2024/01/18 11:30:36;;;;;;;1.20;1.20;;;;;;;;;;6161525;28;20483;-71
2024/01/18 11:33:40;;;;;;;1.60;1.50;;;;;;;;;;6125124;29;20524;-69
2024/01/18 11:36:48;;;;;;;1.10;1.10;;;;;;;;;;6136701;29;20315;-71
2024/01/18 11:39:56;;;;;;;1.20;1.20;;;;;;;;;;6110812;29;20310;-69
2024/01/18 11:43:01;;;;;;;3.20;1.27;;;;;;;;;;6136715;29;20302;-69
2024/01/18 11:46:05;;;;;;;1.20;1.20;;;;;;;;;;6138742;29;20301;-68
2024/01/18 11:49:10;;;;;;;2.07;1.17;;;;;;;;;;6131307;29;20311;-68
2024/01/18 11:52:14;;;;;;;1.00;1.00;;;;;;;;;;6137531;29;20307;-69
2024/01/18 11:55:18;;;;;;;1.23;1.23;;;;;;;;;;6119869;29;20301;-69
2024/01/18 11:58:23;;;;;;;1.23;1.20;;;;;;;;;;6095023;29;20309;-69
2024/01/18 12:01:27;;;;;;;1.07;1.07;;;;;;;;;;6128712;29;20304;-70
2024/01/18 12:04:31;;;;;;;1.37;1.37;;;;;;;;;;6113147;29;20290;-69
2024/01/18 12:07:36;;;;;;;1.13;1.13;;;;;;;;;;6094871;29;20458;-69
2024/01/18 12:10:41;;;;;;;1.20;1.20;;;;;;;;;;6133112;28;20294;-69
2024/01/18 12:13:47;;;;;;;1.20;1.20;;;;;;;;;;6160390;28;20564;-69
2024/01/18 12:16:51;;;;;;;1.17;1.17;;;;;;;;;;6160799;28;20455;-69
2024/01/18 12:19:54;;;;;;;1.10;1.10;;;;;;;;;;6157887;28;20290;-69
2024/01/18 12:23:01;;;;;;;1.00;1.00;;;;;;;;;;6142997;28;20298;-69
2024/01/18 12:26:05;;;;;;;1.17;1.10;;;;;;;;;;6161520;28;20303;-70
2024/01/18 12:29:13;;;;;;;1.00;1.00;;;;;;;;;;6160936;28;20301;-70
2024/01/18 12:32:17;;;;;;;1.20;1.20;;;;;;;;;;6121699;29;20328;-71
2024/01/18 12:35:22;;;;;;;1.10;1.10;;;;;;;;;;6135595;29;20309;-71
2024/01/18 12:38:26;;;;;;;1.20;1.20;;;;;;;;;;6135624;29;20391;-70
2024/01/18 12:41:30;;;;;;;1.30;1.30;;;;;;;;;;6136501;29;20644;-70
2024/01/18 12:44:36;;;;;;;1.60;1.23;;;;;;;;;;6135188;29;20301;-70
2024/01/18 12:47:40;;;;;;;1.50;1.40;;;;;;;;;;6135654;29;20301;-70
2024/01/18 12:50:44;;;;;;;1.23;1.23;;;;;;;;;;6134683;29;20297;-69
2024/01/18 12:53:48;;;;;;;1.10;1.10;;;;;;;;;;6134377;29;20306;-69
2024/01/18 12:56:57;;;;;;;1.00;1.00;;;;;;;;;;6132878;29;20301;-71
2024/01/18 13:00:08;;;;;;;1.00;1.00;;;;;;;;;;6135810;29;20306;-69
2024/01/18 13:03:13;;;;;;;1.13;1.13;;;;;;;;;;6135689;29;20310;-69
2024/01/18 13:06:17;;;;;;;1.30;1.20;;;;;;;;;;6134599;29;20461;-70
2024/01/18 13:09:25;;;;;;;1.10;1.10;;;;;;;;;;6135873;29;20301;-71
2024/01/18 13:12:30;;;;;;;1.23;1.20;;;;;;;;;;6163211;28;20298;-69
2024/01/18 13:15:36;;;;;;;1.50;1.50;;;;;;;;;;6164587;28;20491;-69
2024/01/18 13:18:40;;;;;;;1.33;1.20;;;;;;;;;;6164462;28;20487;-70
2024/01/18 13:21:44;;;;;;;1.40;1.30;;;;;;;;;;6146544;28;20293;-70
2024/01/18 13:24:48;;;;;;;1.10;1.10;;;;;;;;;;6164348;28;20304;-70
2024/01/18 13:27:52;;;;;;;1.10;1.10;;;;;;;;;;6163866;28;20291;-70
2024/01/18 13:30:57;;;;;;;1.20;1.20;;;;;;;;;;6164674;28;20290;-71
2024/01/18 13:34:02;;;;;;;1.10;1.10;;;;;;;;;;6142339;29;20624;-70
2024/01/18 13:37:07;;;;;;;1.20;1.20;;;;;;;;;;6140796;29;20394;-72
2024/01/18 13:40:23;;;;;;;1.13;1.13;;;;;;;;;;6120635;29;20302;-70
2024/01/18 13:43:27;;;;;;;1.13;1.13;;;;;;;;;;6140080;29;20306;-70
2024/01/18 13:46:32;;;;;;;1.50;1.50;;;;;;;;;;6140675;29;20397;-69
2024/01/18 13:49:37;;;;;;;1.17;1.17;;;;;;;;;;6140063;29;20297;-69
2024/01/18 13:52:41;;;;;;;1.57;1.50;;;;;;;;;;6140078;29;20299;-69
2024/01/18 13:55:45;;;;;;;1.20;1.20;;;;;;;;;;6140488;29;20297;-69
2024/01/18 13:58:49;;;;;;;1.10;1.10;;;;;;;;;;6138522;29;20298;-69
2024/01/18 14:01:54;;;;;;;1.30;1.20;;;;;;;;;;6121470;29;20496;-69
2024/01/18 14:04:58;;;;;;;1.40;1.40;;;;;;;;;;6139757;29;20288;-69
2024/01/18 14:08:03;;;;;;;3.03;1.20;;;;;;;;;;6139970;29;20302;-69
2024/01/18 14:11:07;;;;;;;1.30;1.30;;;;;;;;;;6153771;28;20297;-69
2024/01/18 14:14:16;;;;;;;1.30;1.30;;;;;;;;;;6162790;28;20305;-69
2024/01/18 14:17:22;;;;;;;1.30;1.30;;;;;;;;;;6146398;29;20301;-69
2024/01/18 14:20:26;;;;;;;1.20;1.20;;;;;;;;;;6162254;28;20303;-69
2024/01/18 14:23:30;;;;;;;2.00;1.03;;;;;;;;;;6162309;28;20307;-70
2024/01/18 14:26:34;;;;;;;1.53;1.30;;;;;;;;;;6161448;28;20294;-69
2024/01/18 14:29:38;;;;;;;1.53;1.40;;;;;;;;;;6160897;28;20337;-69
2024/01/18 14:32:44;;;;;;;2.37;1.30;;;;;;;;;;6151434;28;20294;-69
2024/01/18 14:35:48;;;;;;;2.00;1.63;;;;;;;;;;6136247;29;20302;-69
2024/01/18 14:38:52;;;;;;;1.40;1.40;;;;;;;;;;6137833;29;20290;-69
2024/01/18 14:41:56;;;;;;;1.20;1.20;;;;;;;;;;6126559;29;20349;-69
2024/01/18 14:45:00;;;;;;;1.40;1.40;;;;;;;;;;6138730;29;20298;-69
2024/01/18 14:48:13;;;;;;;1.20;1.20;;;;;;;;;;6137740;29;20501;-69
2024/01/18 14:51:18;;;;;;;1.27;1.27;;;;;;;;;;6137796;29;20309;-69
2024/01/18 14:54:22;;;;;;;1.30;1.30;;;;;;;;;;6138613;29;20474;-69
2024/01/18 14:57:27;;;;;;;1.20;1.20;;;;;;;;;;6139113;29;20302;-70
2024/01/18 15:00:31;;;;;;;1.47;1.47;;;;;;;;;;6139424;29;20324;-70
2024/01/18 15:03:36;;;;;;;1.20;1.20;;;;;;;;;;6136376;29;20336;-69
2024/01/18 15:06:41;;;;;;;1.20;1.20;;;;;;;;;;6139310;29;20295;-70
2024/01/18 15:09:46;;;;;;;1.20;1.20;;;;;;;;;;6139145;29;20289;-69
2024/01/18 15:12:50;;;;;;;1.37;1.30;;;;;;;;;;6162296;28;20302;-70
2024/01/18 15:15:54;;;;;;;2.37;1.30;;;;;;;;;;6142833;28;20297;-70
2024/01/18 15:19:00;;;;;;;1.40;1.30;;;;;;;;;;6162590;28;20601;-70
2024/01/18 15:22:16;;;;;;;1.20;1.20;;;;;;;;;;6161511;28;20591;-70
2024/01/18 15:25:22;;;;;;;1.50;1.40;;;;;;;;;;6161604;28;20304;-70
2024/01/18 15:28:26;;;;;;;1.30;1.30;;;;;;;;;;6162025;28;20302;-71
2024/01/18 15:31:30;;;;;;;1.10;1.10;;;;;;;;;;6160371;28;20342;-70
2024/01/18 15:34:36;;;;;;;1.27;1.27;;;;;;;;;;6137112;29;20465;-70
2024/01/18 15:37:40;;;;;;;1.13;1.13;;;;;;;;;;6136739;29;20337;-70
2024/01/18 15:40:45;;;;;;;1.70;1.57;;;;;;;;;;6137827;29;20295;-70
2024/01/18 15:43:51;;;;;;;1.30;1.30;;;;;;;;;;6138132;29;20471;-70
2024/01/18 15:47:03;;;;;;;1.40;1.30;;;;;;;;;;6137001;29;20298;-69
2024/01/18 15:50:09;;;;;;;1.27;1.27;;;;;;;;;;6137505;29;20322;-70
2024/01/18 15:53:13;;;;;;;1.20;1.20;;;;;;;;;;6137341;29;20306;-69
2024/01/18 15:56:18;;;;;;;1.37;1.27;;;;;;;;;;6136235;29;20315;-69
2024/01/18 15:59:22;;;;;;;1.30;1.30;;;;;;;;;;6137393;29;20612;-74
2024/01/18 16:02:28;;;;;;;1.30;1.30;;;;;;;;;;6137378;29;20302;-69
2024/01/18 16:05:34;;;;;;;1.50;1.50;;;;;;;;;;6136060;29;20295;-70
2024/01/18 16:08:38;;;;;;;1.40;1.40;;;;;;;;;;6137177;29;20302;-70
2024/01/18 16:11:44;;;;;;;1.10;1.10;;;;;;;;;;6155272;28;20297;-71
2024/01/18 16:14:49;;;;;;;1.30;1.30;;;;;;;;;;6161606;28;20299;-69
2024/01/18 16:17:53;;;;;;;1.53;1.10;;;;;;;;;;6160959;28;20301;-69
2024/01/18 16:20:59;;;;;;;1.10;1.10;;;;;;;;;;6161878;28;20297;-71
2024/01/18 16:24:04;;;;;;;1.43;1.40;;;;;;;;;;6161249;28;20325;-70
2024/01/18 16:27:08;;;;;;;1.20;1.20;;;;;;;;;;6161874;28;20294;-70
2024/01/18 16:30:13;;;;;;;1.50;1.50;;;;;;;;;;6161829;28;20380;-70
2024/01/18 16:33:29;;;;;;;1.50;1.50;;;;;;;;;;6142732;29;20315;-70
2024/01/18 16:36:34;;;;;;;1.50;1.50;;;;;;;;;;6136944;29;20382;-71
2024/01/18 16:39:39;;;;;;;1.40;1.40;;;;;;;;;;6136863;29;20298;-69
2024/01/18 16:42:44;;;;;;;1.20;1.20;;;;;;;;;;6118396;29;20298;-70
2024/01/18 16:45:48;;;;;;;1.53;1.40;;;;;;;;;;6136322;29;20350;-70
2024/01/18 16:48:52;;;;;;;1.63;1.60;;;;;;;;;;6118953;29;20313;-70
2024/01/18 16:51:57;;;;;;;1.40;1.40;;;;;;;;;;6136447;29;20295;-69
2024/01/18 16:55:03;;;;;;;1.50;1.50;;;;;;;;;;6134795;29;20310;-70
2024/01/18 16:58:07;;;;;;;1.30;1.30;;;;;;;;;;6120456;29;20303;-70
2024/01/18 17:01:11;;;;;;;1.67;1.67;;;;;;;;;;6132739;29;20300;-72
2024/01/18 17:04:16;;;;;;;1.57;1.50;;;;;;;;;;6137520;29;20390;-70
2024/01/18 17:07:22;;;;;;;1.40;1.40;;;;;;;;;;6136403;29;20305;-73
2024/01/18 17:10:26;;;;;;;1.37;1.37;;;;;;;;;;6128484;28;20297;-69
2024/01/18 17:13:30;;;;;;;2.83;1.60;;;;;;;;;;6158601;28;20306;-71
2024/01/18 17:16:35;;;;;;;3.87;1.53;;;;;;;;;;6118686;28;20294;-71
2024/01/18 17:19:39;;;;;;;1.40;1.40;;;;;;;;;;6160703;28;20579;-70
2024/01/18 17:22:44;;;;;;;1.43;1.43;;;;;;;;;;6160040;28;20454;-71
2024/01/18 17:25:48;;;;;;;1.70;1.60;;;;;;;;;;6158569;28;20299;-71
2024/01/18 17:28:53;;;;;;;1.80;1.70;;;;;;;;;;6160960;28;20290;-69
2024/01/18 17:31:57;;;;;;;1.37;1.37;;;;;;;;;;6159722;28;20302;-70
2024/01/18 17:35:02;;;;;;;1.40;1.40;;;;;;;;;;6159092;28;20575;-71
2024/01/18 17:38:07;;;;;;;1.30;1.30;;;;;;;;;;6162495;28;20297;-71
2024/01/18 17:41:13;;;;;;;1.63;1.63;;;;;;;;;;6159782;28;20623;-71
2024/01/18 17:44:17;;;;;;;1.30;1.30;;;;;;;;;;6160493;28;20320;-70
2024/01/18 17:47:22;;;;;;;1.50;1.50;;;;;;;;;;6160140;28;20298;-69
2024/01/18 17:50:27;;;;;;;1.60;1.50;;;;;;;;;;6156256;28;20298;-70
2024/01/18 17:53:32;;;;;;;1.50;1.50;;;;;;;;;;6158431;28;20617;-71
2024/01/18 17:56:37;;;;;;;1.77;1.77;;;;;;;;;;6159906;28;20317;-70
2024/01/18 17:59:41;;;;;;;1.33;1.33;;;;;;;;;;6162446;28;20294;-71
2024/01/18 18:02:46;;;;;;;1.47;1.47;;;;;;;;;;6163862;28;20293;-69
2024/01/18 18:05:50;;;;;;;2.00;1.30;;;;;;;;;;6156429;28;20542;-69
2024/01/18 18:08:57;;;;;;;2.10;1.40;;;;;;;;;;6163761;28;20297;-68
2024/01/18 18:12:01;;;;;;;2.37;1.70;;;;;;;;;;6164067;28;20297;-70
2024/01/18 18:15:06;;;;;;;1.40;1.30;;;;;;;;;;6162793;28;20304;-70
2024/01/18 18:18:09;;;;;;;1.20;1.20;;;;;;;;;;6161964;28;20296;-71
2024/01/18 18:21:14;;;;;;;1.20;1.20;;;;;;;;;;6163566;28;20321;-70
2024/01/18 18:24:19;;;;;;;1.37;1.37;;;;;;;;;;6162119;28;20378;-69
2024/01/18 18:27:23;;;;;;;1.30;1.30;;;;;;;;;;6163203;28;20306;-69
2024/01/18 18:30:27;;;;;;;1.43;1.43;;;;;;;;;;6161798;28;20654;-69